Tiempo atmosférico en la estación meteorológica de Villena, Alacant/Alicante (486 m.)



Fecha
DESCASC
Temp. máxima en grados centígrados (hora)
DESCASC
Temp. mínima en grados centígrados (hora)
DESCASC
Temp. media en grados centígrados
DESCASC
Racha de viento máxima en m/sg (hora)
DESCASC
Velocidad máxima media en intervalos de 10 minutos(hora)
DESCASC
Precipitaciones diarias en mm
DESCASC
Precipitaciones de 00:00 a 06:00 en mm
DESCASC
Precipitaciones de 06:00 a 12:00 en mm
DESCASC
Precipitaciones de 12:00 a 18:00 en mm
DESCASC
Precipitaciones de 18:00 a 24:00 en mm
DESCASC
22-04-2019 15 (15:30) 8.9 (01:40) 11.9 11.94 (02:00) 6.94 (01:40) 10.4 10.2 0.2 0 0
21-04-2019 12 (12:40) 8.9 (22:40) 10.4 17.22 (14:50) 11.11 (14:50) 36.6 0 0 5.2 31.4
20-04-2019 12 (01:50) 10.1 (14:00) 11.1 21.39 (05:00) 13.33 (05:00) 83.8 13.8 45.4 24.6 0
19-04-2019 11.2 (23:59) 9.1 (01:40) 10.2 9.17 (21:50) 5.83 (22:00) 60 1 10.6 15 33.4
18-04-2019 12.8 (15:20) 9.5 (00:00) 11.2 14.17 (16:00) 10 (16:00) 0.4 0 0 0.4 0
17-04-2019 21.2 (15:20) 5 (00:00) 13.1 9.17 (23:00) 6.39 (15:50) 0 0 0 0 0
16-04-2019 23.1 (14:20) 7.5 (00:00) 15.3 10.56 (15:00) 8.33 (15:00) 0 0 0 0 0
15-04-2019 24.1 (13:30) 9.9 (00:00) 17 9.72 (16:40) 7.22 (16:40) 0 0 0 0 0
14-04-2019 26.8 (17:30) 1.7 (00:00) 14.2 9.44 (17:30) 5.83 (13:10) 0 0 0 0 0
13-04-2019 23.6 (17:10) 1.7 (00:00) 12.7 9.72 (17:00) 5.83 (13:10) 0 0 0 0 0
12-04-2019 20.6 (17:40) 3 (00:00) 11.8 13.33 (20:00) 7.5 (20:10) 0 0 0 0 0
11-04-2019 20.4 (17:30) 4.5 (00:00) 12.4 11.11 (19:50) 6.94 (19:40) 0 0 0 0 0
10-04-2019 17.2 (15:10) 5.1 (00:00) 11.2 15 (14:10) 9.72 (17:50) 0 0 0 0 0
09-04-2019 17.7 (17:00) 6.6 (00:00) 12.2 18.89 (17:50) 10.28 (17:50) 0.6 0.2 0 0.4 0
08-04-2019 18.8 (16:40) 5.7 (00:00) 12.2 15.83 (17:10) 8.61 (17:10) 1.4 0 0 1.2 0.2
07-04-2019 14.5 (18:40) 3.6 (00:00) 9 13.33 (12:10) 8.06 (18:50) 0 0 0 0 0
06-04-2019 15.9 (16:10) 5 (00:00) 10.4 21.11 (17:00) 13.06 (17:00) 0.8 0 0 0.6 0.2
05-04-2019 18.2 (14:20) 5.4 (00:00) 11.8 12.22 (16:20) 6.67 (15:40) 7.2 0 0 7.2 0
04-04-2019 17.6 (15:50) 5.6 (00:00) 11.6 11.67 (19:00) 8.89 (19:00) 0 0 0 0 0
03-04-2019 22 (16:30) 3.6 (00:00) 12.8 10 (14:40) 6.39 (18:30) 0 0 0 0 0
02-04-2019 19.9 (16:20) 7.9 (00:00) 13.9 12.22 (19:30) 6.94 (19:30) 0 0 0 0 0
01-04-2019 15.8 (16:30) 9.5 (00:00) 12.7 7.22 (17:40) 5 (17:50) 5.4 0.4 0.2 0.2 4.6
31-03-2019 11.7 (17:00) 7.5 (00:00) 9.6 10.83 (17:40) 6.39 (17:40) 17.8 0.6 12.6 4.2 0.4
30-03-2019 18.8 (15:00) -1.7 (-00:0) 8.5 12.78 (22:00) 8.89 (21:50) 0 0 0 0 0
29-03-2019 16.8 (14:10) -3.6 (-00:0) 6.6 13.06 (12:20) 7.22 (15:50) 0 0 0 0 0
28-03-2019 17.7 (13:30) -3.3 (-00:0) 7.2 10 (16:30) 6.94 (15:10) 0 0 0 0 0
27-03-2019 18.2 (14:20) -1.7 (-00:0) 8.3 12.22 (14:20) 6.94 (14:20) 0 0 0 0 0
26-03-2019 19.2 (14:40) 1.1 (00:00) 10.2 11.94 (13:00) 7.78 (11:20) 0 0 0 0 0
25-03-2019 21.5 (13:50) -0.7 (-00:0) 10.4 9.44 (12:50) 5.28 (16:00) 0 0 0 0 0

Gráficas

Temp. máximas Temp. mínimas Temp. medias Precipitaciones Rachas de viento máximas Velocidades máximas media en intervalos de 10 minutos

Datos horarios

Fecha y hora oficial Temperatura (ºC) Velocidad del viento (km/h) Dirección del viento Racha (km/h) Dirección de racha Precipitación (mm) Presión (hPa) Tendencia (hPa) Humedad (%)
2019-04-23 23:00:00 10.4 14 Oeste 37 Oeste 0 -- -- 63
2019-04-23 22:00:00 11.5 29 Oeste 52 Noroeste 0 -- -- 60
2019-04-23 21:00:00 13.3 18 Sudoeste 30 Sudoeste 0 -- -- 72
2019-04-23 20:00:00 13.8 14 Sudoeste 33 Sudoeste 0 -- -- 71
2019-04-23 19:00:00 14.6 23 Sur 40 Sudoeste 0 -- -- 64
2019-04-23 18:00:00 14.2 13 Sur 25 Sur 0 -- -- 72
2019-04-23 17:00:00 13 13 Sur 25 Sur 0 -- -- 75
2019-04-23 16:00:00 13 17 Sudoeste 31 Oeste 0.4 -- -- 78
2019-04-23 15:00:00 14.4 23 Oeste 35 Sudoeste 0 -- -- 67
2019-04-23 14:00:00 16.4 18 Sudoeste 29 Sur 0 -- -- 55
2019-04-23 13:00:00 16.4 6 Oeste 15 Oeste 0 -- -- 52
2019-04-23 12:00:00 15.8 10 Oeste 15 Oeste 0 -- -- 58
2019-04-23 11:00:00 14.5 3 Sudeste 7 Oeste 0 -- -- 61
2019-04-23 10:00:00 13 3 Nordeste 6 Este 0 -- -- 66
2019-04-23 09:00:00 10.8 6 Norte 11 Norte 0 -- -- 78
2019-04-23 08:00:00 8.7 9 Norte 14 Norte 0 -- -- 95
2019-04-23 07:00:00 8 0 Calma 4 Nordeste 0 -- -- 95
2019-04-23 06:00:00 8.2 2 Nordeste 4 Noroeste 0 -- -- 95
2019-04-23 05:00:00 8.4 0 Calma 12 Sudoeste 0 -- -- 94
2019-04-23 04:00:00 8.2 0 Calma 2 Sudeste 0 -- -- 93
2019-04-23 03:00:00 8.4 0 Calma 5 Sudoeste 0 -- -- 92
2019-04-23 02:00:00 9.1 3 Sudoeste 8 Sudoeste 0 -- -- 90
2019-04-23 01:00:00 10.2 3 Sudeste 8 Sudoeste 0 -- -- 89
2019-04-23 00:00:00 11.3 5 Sudeste 10 Sudeste 0 -- -- 87
2019-04-22 23:00:00 12.3 6 Sudeste 13 Sudoeste 0 -- -- 83
2019-04-22 22:00:00 12.1 5 Este 8 Sudeste 0 -- -- 87
2019-04-22 21:00:00 12.6 0 Calma 4 Sudeste 0 -- -- 86
2019-04-22 20:00:00 13 2 Sudeste 9 Noroeste 0 -- -- 82
2019-04-22 19:00:00 13.4 4 Noroeste 13 Norte 0 -- -- 77
2019-04-22 18:00:00 13.7 10 Noroeste 29 Noroeste 0 -- -- 74
2019-04-22 17:00:00 14.2 13 Noroeste 23 Oeste 0 -- -- 73
2019-04-22 16:00:00 14.8 10 Norte 22 Norte 0 -- -- 65
2019-04-22 15:00:00 14.7 14 Norte 27 Norte 0 -- -- 65
2019-04-22 14:00:00 14.3 17 Norte 32 Noroeste 0 -- -- 63
2019-04-22 13:00:00 13.6 17 Noroeste 28 Noroeste 0 -- -- 70
2019-04-22 12:00:00 12.5 15 Norte 27 Norte 0 -- -- 75
2019-04-22 11:00:00 11.2 10 Noroeste 15 Noroeste 0 -- -- 85
2019-04-22 10:00:00 10 9 Norte 18 Norte 0 -- -- 89
2019-04-22 09:00:00 9.8 11 Norte 22 Noroeste 0 -- -- 90
2019-04-22 08:00:00 9.3 14 Noroeste 23 Noroeste 0.2 -- -- 92
2019-04-22 07:00:00 9.4 14 Norte 22 Noroeste 0 -- -- 94
2019-04-22 06:00:00 9.3 9 Noroeste 26 Norte 0 -- -- 96
2019-04-22 05:00:00 9.3 13 Noroeste 24 Noroeste 0.4 -- -- 98
2019-04-22 04:00:00 9.1 10 Noroeste 26 Norte 3.6 -- -- 98
2019-04-22 03:00:00 9.1 17 Norte 27 Norte 1.6 -- -- 99
2019-04-22 02:00:00 8.9 21 Norte 43 Nordeste 2.8 -- -- 99
2019-04-22 01:00:00 9.2 18 Norte 30 Norte 1.8 -- -- 99
2019-04-22 00:00:00 9 17 Norte 41 Norte 2 -- -- 99
2019-04-21 23:00:00 8.9 23 Norte 37 Norte 4 -- -- 99
2019-04-21 22:00:00 9.1 18 Norte 47 Nordeste 11 -- -- 99
2019-04-21 21:00:00 9 34 Nordeste 54 Nordeste 7 -- -- 99
2019-04-21 20:00:00 9.2 26 Norte 44 Norte 4 -- -- 98
2019-04-21 19:00:00 9 24 Norte 41 Norte 3.4 -- -- 98
2019-04-21 18:00:00 9.4 26 Norte 47 Nordeste 4 -- -- 97
2019-04-21 17:00:00 9.9 26 Norte 47 Nordeste 1 -- -- 94
2019-04-21 16:00:00 10.9 29 Norte 58 Norte 0 -- -- 90
2019-04-21 15:00:00 11.3 37 Nordeste 62 Nordeste 0 -- -- 87
2019-04-21 14:00:00 11.3 23 Norte 41 Norte 0.2 -- -- 88
2019-04-21 13:00:00 11.6 25 Norte 50 Norte 0 -- -- 87
2019-04-21 12:00:00 11.2 31 Norte 52 Nordeste 0 -- -- 87
2019-04-21 11:00:00 10.8 33 Norte 53 Nordeste 0 -- -- 88
2019-04-21 10:00:00 10.3 31 Norte 50 Nordeste 0 -- -- 88
2019-04-21 09:00:00 10 27 Norte 46 Nordeste 0 -- -- 89
2019-04-21 08:00:00 9.5 22 Norte 47 Norte 0 -- -- 91
2019-04-21 07:00:00 9.4 26 Norte 46 Nordeste 0 -- -- 89
2019-04-21 06:00:00 9.4 20 Nordeste 39 Nordeste 0 -- -- 87
2019-04-21 05:00:00 9.5 26 Norte 43 Norte 0 -- -- 87
2019-04-21 04:00:00 9.7 28 Nordeste 51 Nordeste 0 -- -- 87
2019-04-21 03:00:00 9.5 31 Nordeste 58 Nordeste 0 -- -- 90
2019-04-21 02:00:00 9.6 34 Nordeste 57 Nordeste 0 -- -- 91
2019-04-21 01:00:00 10.1 31 Nordeste 56 Nordeste 0 -- -- 90
2019-04-21 00:00:00 10.6 28 Nordeste 48 Nordeste 0 -- -- 91
2019-04-20 23:00:00 10.6 26 Norte 44 Nordeste 0 -- -- 92
2019-04-20 22:00:00 10.7 26 Nordeste 43 Nordeste 0 -- -- 92
2019-04-20 21:00:00 10.7 23 Nordeste 46 Nordeste 0 -- -- 92
2019-04-20 20:00:00 10.7 27 Norte 45 Norte 0 -- -- 92
2019-04-20 19:00:00 10.8 24 Nordeste 46 Nordeste 0 -- -- 91
2019-04-20 18:00:00 11.1 28 Norte 51 Nordeste 0 -- -- 92
2019-04-20 17:00:00 11.1 26 Norte 48 Norte 0.2 -- -- 98
2019-04-20 16:00:00 10.5 23 Nordeste 53 Nordeste 1.2 -- -- 99
2019-04-20 15:00:00 10.1 20 Nordeste 49 Nordeste 5.6 -- -- 99
2019-04-20 14:00:00 10.1 29 Nordeste 47 Norte 8 -- -- 99
2019-04-20 13:00:00 10.3 18 Nordeste 44 Nordeste 9.6 -- -- 99
2019-04-20 12:00:00 10.3 27 Nordeste 48 Nordeste 8.2 -- -- 99
2019-04-20 11:00:00 10.3 28 Norte 46 Nordeste 5.8 -- -- 99
2019-04-20 10:00:00 10.4 26 Nordeste 54 Nordeste 10.6 -- -- 99
2019-04-20 09:00:00 10.4 34 Nordeste 61 Nordeste 12.2 -- -- 98
2019-04-20 08:00:00 10.6 30 Nordeste 47 Nordeste 5.2 -- -- 96
2019-04-20 07:00:00 10.9 33 Nordeste 72 Nordeste 3.4 -- -- 94
2019-04-20 06:00:00 11.4 37 Nordeste 68 Nordeste 0 -- -- 95
2019-04-20 05:00:00 10.8 48 Nordeste 77 Nordeste 2.8 -- -- 98
2019-04-20 04:00:00 11.5 41 Nordeste 70 Nordeste 0.6 -- -- 95
2019-04-20 03:00:00 11.7 33 Norte 54 Norte 1.6 -- -- 96
2019-04-20 02:00:00 11.8 22 Nordeste 44 Este 4 -- -- 97
2019-04-20 01:00:00 11.7 20 Norte 38 Norte 4.8 -- -- 98
2019-04-20 00:00:00 11.2 8 Noroeste 18 Oeste 7.8 -- -- 98
2019-04-19 23:00:00 9.6 16 Oeste 30 Oeste 11.4 -- -- 97
2019-04-19 22:00:00 9.2 21 Oeste 33 Oeste 4 -- -- 97
2019-04-19 21:00:00 9.5 9 Noroeste 17 Norte 2.4 -- -- 97
2019-04-19 20:00:00 9.5 7 Norte 18 Norte 3.6 -- -- 97
2019-04-19 19:00:00 9.7 5 Norte 13 Norte 4.2 -- -- 96
2019-04-19 18:00:00 10 8 Norte 15 Norte 4.2 -- -- 96
2019-04-19 17:00:00 10.3 5 Norte 12 Norte 5.2 -- -- 96
2019-04-19 16:00:00 10.5 6 Norte 9 Norte 2.2 -- -- 95
2019-04-19 15:00:00 10.8 4 Norte 9 Norte 1.4 -- -- 95
2019-04-19 14:00:00 11 4 Norte 7 Nordeste 1.4 -- -- 95
2019-04-19 13:00:00 10.9 3 Norte 6 Norte 0.6 -- -- 95
2019-04-19 12:00:00 10.7 3 Norte 4 Norte 0.8 -- -- 95
2019-04-19 11:00:00 10.3 2 Este 6 Sur 1.8 -- -- 95
2019-04-19 10:00:00 10.2 5 Sur 10 Sudoeste 2.6 -- -- 95
2019-04-19 09:00:00 10.3 4 Sudeste 11 Este 1.8 -- -- 95
2019-04-19 08:00:00 9.9 0 Calma 5 Nordeste 2 -- -- 95
2019-04-19 07:00:00 9.8 3 Nordeste 5 Nordeste 1.6 -- -- 94
2019-04-19 06:00:00 10.1 3 Este 12 Este 1 -- -- 92
2019-04-19 05:00:00 10 3 Norte 5 Nordeste 0 -- -- 90
2019-04-19 04:00:00 9.9 3 Sudeste 11 Sudeste 0 -- -- 88
2019-04-19 03:00:00 9.4 6 Este 11 Sudeste 0 -- -- 89
2019-04-19 02:00:00 9.3 3 Sur 9 Sur 0 -- -- 91
2019-04-19 01:00:00 9.5 0 Calma 7 Este 0 -- -- 90
2019-04-19 00:00:00 9.5 7 Sudeste 9 Este 0 -- -- 91
2019-04-18 23:00:00 9.9 3 Nordeste 11 Sudeste 0 -- -- 90
2019-04-18 22:00:00 9.5 4 Sudeste 9 Sudeste 0 -- -- 89
2019-04-18 21:00:00 10.8 6 Noroeste 32 Oeste 0 -- -- 85
2019-04-18 20:00:00 10.9 9 Este 17 Este 0 -- -- 85
2019-04-18 19:00:00 10.6 6 Norte 18 Nordeste 0 -- -- 89
2019-04-18 18:00:00 10.6 4 Oeste 24 Noroeste 0 -- -- 88
2019-04-18 17:00:00 10.6 17 Noroeste 45 Oeste 0.2 -- -- 87
2019-04-18 16:00:00 10.2 36 Oeste 51 Oeste 0.2 -- -- 88
2019-04-18 15:00:00 12.7 10 Noroeste 18 Norte 0 -- -- 91
2019-04-18 14:00:00 12.6 10 Norte 22 Norte 0 -- -- 85
2019-04-18 13:00:00 12.6 16 Norte 26 Nordeste 0 -- -- 84
2019-04-18 12:00:00 12.2 15 Nordeste 30 Nordeste 0 -- -- 86
2019-04-18 11:00:00 12.1 18 Nordeste 27 Nordeste 0 -- -- 82
2019-04-18 10:00:00 11.8 15 Nordeste 32 Nordeste 0 -- -- 84
2019-04-18 09:00:00 11.7 15 Norte 27 Norte 0 -- -- 83
2019-04-18 08:00:00 11.3 16 Norte 31 Norte 0 -- -- 82
2019-04-18 07:00:00 11.1 20 Norte 49 Norte 0 -- -- 81
2019-04-18 06:00:00 11.3 26 Norte 49 Norte 0 -- -- 82
2019-04-18 05:00:00 11.5 31 Nordeste 48 Nordeste 0 -- -- 81
2019-04-18 04:00:00 12 13 Norte 28 Norte 0 -- -- 80
2019-04-18 03:00:00 12 17 Noroeste 26 Norte 0 -- -- 82
2019-04-18 02:00:00 12.1 15 Norte 33 Norte 0 -- -- 79
2019-04-18 01:00:00 12.1 16 Norte 26 Norte 0 -- -- 81
2019-04-18 00:00:00 12 14 Norte 28 Nordeste 0 -- -- 81
2019-04-17 23:00:00 12.2 21 Nordeste 33 Nordeste 0 -- -- 80
2019-04-17 22:00:00 12.7 19 Nordeste 31 Nordeste 0 -- -- 81
2019-04-17 21:00:00 13.8 18 Nordeste 26 Nordeste 0 -- -- 76
2019-04-17 20:00:00 15.9 5 Oeste 22 Sudoeste 0 -- -- 65
2019-04-17 19:00:00 17.8 7 Sudeste 20 Sur 0 -- -- 53
2019-04-17 18:00:00 19.2 15 Sur 26 Sur 0 -- -- 48
2019-04-17 17:00:00 20.5 18 Sur 31 Sur 0 -- -- 43
2019-04-17 16:00:00 20.9 20 Sur 32 Sur 0 -- -- 43
2019-04-17 15:00:00 20.9 19 Sur 31 Sur 0 -- -- 46
2019-04-17 14:00:00 20.7 21 Sur 32 Sur 0 -- -- 39
2019-04-17 13:00:00 19.7 15 Sur 28 Sudeste 0 -- -- 46
2019-04-17 12:00:00 17.8 4 Sudeste 14 Sudeste 0 -- -- 56
2019-04-17 11:00:00 15 3 Este 9 Norte 0 -- -- 66
2019-04-17 10:00:00 12.9 3 Norte 6 Noroeste 0 -- -- 75
2019-04-17 09:00:00 9 0 Calma 4 Nordeste 0 -- -- 94
2019-04-17 08:00:00 5.4 0 Calma 3 Este 0 -- -- 92
2019-04-17 07:00:00 5.8 2 Sudeste 3 Sudeste 0 -- -- 90
2019-04-17 06:00:00 7.1 0 Calma 10 Noroeste 0 -- -- 88
2019-04-17 05:00:00 8.7 7 Noroeste 13 Norte 0 -- -- 86
2019-04-17 04:00:00 10.4 9 Norte 17 Norte 0 -- -- 83
2019-04-17 03:00:00 10.9 9 Norte 13 Nordeste 0 -- -- 82
2019-04-17 02:00:00 11.1 7 Norte 11 Nordeste 0 -- -- 82
2019-04-17 01:00:00 10.8 5 Norte 12 Nordeste 0 -- -- 87
2019-04-17 00:00:00 11.3 4 Sudoeste 8 Sudoeste 0 -- -- 87
2019-04-16 23:00:00 12.1 0 Calma 10 Sur 0 -- -- 84
2019-04-16 22:00:00 13 3 Sudeste 18 Sudoeste 0 -- -- 80
2019-04-16 21:00:00 13.9 9 Sur 22 Sur 0 -- -- 76
2019-04-16 20:00:00 15.9 19 Sur 31 Sur 0 -- -- 66
2019-04-16 19:00:00 18.3 17 Sur 28 Sur 0 -- -- 57
2019-04-16 18:00:00 19.3 21 Sur 35 Sur 0 -- -- 55
2019-04-16 17:00:00 20.1 22 Sur 37 Sudeste 0 -- -- 53
2019-04-16 16:00:00 20.6 23 Sur 36 Sur 0 -- -- 52
2019-04-16 15:00:00 21.1 30 Sur 38 Sudeste 0 -- -- 52
2019-04-16 14:00:00 22.8 11 Sudoeste 18 Oeste 0 -- -- 31
2019-04-16 13:00:00 21.4 6 Oeste 23 Norte 0 -- -- 40
2019-04-16 12:00:00 19.6 6 Noroeste 21 Noroeste 0 -- -- 44
2019-04-16 11:00:00 17.5 9 Noroeste 21 Noroeste 0 -- -- 51
2019-04-16 10:00:00 15.4 15 Noroeste 24 Noroeste 0 -- -- 60
2019-04-16 09:00:00 13.4 12 Noroeste 25 Norte 0 -- -- 69
2019-04-16 08:00:00 9.6 12 Norte 19 Noroeste 0 -- -- 81
2019-04-16 07:00:00 8.9 5 Sudoeste 13 Oeste 0 -- -- 84
2019-04-16 06:00:00 7.5 9 Oeste 15 Oeste 0 -- -- 95
2019-04-16 05:00:00 8.8 4 Oeste 12 Noroeste 0 -- -- 93
2019-04-16 04:00:00 9.7 10 Norte 14 Norte 0 -- -- 94
2019-04-16 03:00:00 9.5 9 Norte 10 Norte 0 -- -- 93
2019-04-16 02:00:00 10.3 3 Noroeste 8 Sudeste 0 -- -- 91
2019-04-16 01:00:00 12.1 7 Sur 17 Sudeste 0 -- -- 90
2019-04-16 00:00:00 12.7 12 Sudeste 17 Sudeste 0 -- -- 87
2019-04-15 23:00:00 13.4 6 Sudeste 14 Sur 0 -- -- 79
2019-04-15 22:00:00 14.7 12 Sudeste 24 Sudeste 0 -- -- 78
2019-04-15 21:00:00 15.9 18 Sur 26 Sudeste 0 -- -- 63
2019-04-15 20:00:00 18.1 17 Sur 27 Sur 0 -- -- 53
2019-04-15 19:00:00 19.8 19 Sur 31 Sudeste 0 -- -- 48
2019-04-15 18:00:00 21.3 21 Sur 33 Sudeste 0 -- -- 42
2019-04-15 17:00:00 22.6 23 Sur 35 Sur 0 -- -- 39
2019-04-15 16:00:00 22 22 Sur 33 Sur 0 -- -- 41
2019-04-15 15:00:00 23.2 21 Sudeste 33 Sudeste 0 -- -- 38
2019-04-15 14:00:00 23.5 20 Sur 28 Sudoeste 0 -- -- 39
2019-04-15 13:00:00 22.1 10 Nordeste 19 Norte 0 -- -- 48
2019-04-15 12:00:00 19.5 4 Noroeste 17 Norte 0 -- -- 56
2019-04-15 11:00:00 17.2 13 Norte 25 Norte 0 -- -- 65
2019-04-15 10:00:00 14.9 17 Nordeste 28 Norte 0 -- -- 74
2019-04-15 09:00:00 13.2 13 Norte 28 Nordeste 0 -- -- 80
2019-04-15 08:00:00 12.1 12 Norte 23 Noroeste 0 -- -- 77
2019-04-15 07:00:00 10 6 Noroeste 8 Noroeste 0 -- -- 81
2019-04-15 06:00:00 10 5 Oeste 8 Noroeste 0 -- -- 78
2019-04-15 05:00:00 10 2 Norte 3 Noroeste 0 -- -- 77
2019-04-15 04:00:00 10.9 3 Noroeste 8 Oeste 0 -- -- 73
2019-04-15 03:00:00 11.5 5 Noroeste 9 Norte 0 -- -- 70
2019-04-15 02:00:00 12 3 Noroeste 10 Norte 0 -- -- 65
2019-04-15 01:00:00 12.9 2 Sur 9 Sudeste 0 -- -- 58
2019-04-15 00:00:00 15.2 4 Sudoeste 12 Sudeste 0 -- -- 49
2019-04-14 23:00:00 16.5 11 Sur 19 Sudeste 0 -- -- 46
2019-04-14 22:00:00 18.3 13 Este 19 Este 0 -- -- 40
2019-04-14 21:00:00 20.9 13 Sudeste 20 Sudeste 0 -- -- 35
2019-04-14 20:00:00 24.5 9 Noroeste 27 Oeste 0 -- -- 35
2019-04-14 19:00:00 26.1 12 Noroeste 31 Oeste 0 -- -- 30
2019-04-14 18:00:00 26 12 Noroeste 34 Oeste 0 -- -- 28
2019-04-14 17:00:00 26.6 13 Oeste 28 Noroeste 0 -- -- 26
2019-04-14 16:00:00 26 18 Noroeste 32 Oeste 0 -- -- 28
2019-04-14 15:00:00 25.4 18 Oeste 32 Oeste 0 -- -- 29
2019-04-14 14:00:00 24.7 13 Noroeste 33 Oeste 0 -- -- 29
2019-04-14 13:00:00 23.7 13 Noroeste 28 Oeste 0 -- -- 32
2019-04-14 12:00:00 22 11 Noroeste 28 Oeste 0 -- -- 39
2019-04-14 11:00:00 19.6 14 Oeste 24 Oeste 0 -- -- 42
2019-04-14 10:00:00 16.1 3 Norte 12 Noroeste 0 -- -- 48
2019-04-14 09:00:00 7.3 0 Calma 5 Norte 0 -- -- 82
2019-04-14 08:00:00 2.2 3 Norte 6 Norte 0 -- -- 92
2019-04-14 07:00:00 2 2 Norte 17 Noroeste 0 -- -- 88
2019-04-14 06:00:00 2.4 3 Noroeste 6 Noroeste 0 -- -- 89
2019-04-14 05:00:00 3.1 2 Oeste 8 Norte 0 -- -- 88
2019-04-14 04:00:00 3.4 4 Norte 5 Norte 0 -- -- 84
2019-04-14 03:00:00 5.4 0 Calma 6 Sudoeste 0 -- -- 78
2019-04-14 02:00:00 5.9 6 Noroeste 9 Noroeste 0 -- -- 80
2019-04-14 01:00:00 7.9 0 Calma 10 Sur 0 -- -- 73
2019-04-14 00:00:00 10 9 Sur 15 Sudeste 0 -- -- 66
2019-04-13 23:00:00 10.5 9 Sudeste 15 Sudeste 0 -- -- 65
2019-04-13 22:00:00 12.7 13 Sudeste 19 Sudeste 0 -- -- 58
2019-04-13 21:00:00 14.3 17 Sudeste 26 Sudeste 0 -- -- 54
2019-04-13 20:00:00 17.5 15 Sudeste 30 Sudeste 0 -- -- 47
2019-04-13 19:00:00 22.4 14 Noroeste 29 Oeste 0 -- -- 20
2019-04-13 18:00:00 23.3 13 Noroeste 33 Oeste 0 -- -- 20
2019-04-13 17:00:00 23.5 13 Oeste 35 Oeste 0 -- -- 20
2019-04-13 16:00:00 22.8 12 Norte 28 Noroeste 0 -- -- 19
2019-04-13 15:00:00 21.9 12 Noroeste 30 Norte 0 -- -- 21
2019-04-13 14:00:00 21 13 Norte 34 Noroeste 0 -- -- 22
2019-04-13 13:00:00 20.4 16 Noroeste 27 Noroeste 0 -- -- 26
2019-04-13 12:00:00 18.1 6 Norte 16 Oeste 0 -- -- 36
2019-04-13 11:00:00 15.6 7 Noroeste 16 Oeste 0 -- -- 46
2019-04-13 10:00:00 11.4 7 Norte 15 Norte 0 -- -- 58
2019-04-13 09:00:00 6.3 4 Norte 10 Norte 0 -- -- 83
2019-04-13 08:00:00 1.7 4 Noroeste 11 Norte 0 -- -- 91
2019-04-13 07:00:00 2.1 9 Norte 13 Norte 0 -- -- 92
2019-04-13 06:00:00 3 5 Norte 9 Noroeste 0 -- -- 90
2019-04-13 05:00:00 3.9 8 Norte 13 Norte 0 -- -- 90
2019-04-13 04:00:00 3.4 8 Norte 10 Norte 0 -- -- 90
2019-04-13 03:00:00 3.4 2 Norte 4 Oeste 0 -- -- 87
2019-04-13 02:00:00 5 0 Calma 7 Norte 0 -- -- 85
2019-04-13 01:00:00 6.7 0 Calma 11 Sudeste 0 -- -- 81
2019-04-13 00:00:00 8.4 8 Sur 15 Sudeste 0 -- -- 77
2019-04-12 23:00:00 9.6 12 Sudeste 20 Sudeste 0 -- -- 73
2019-04-12 22:00:00 10.8 17 Sudeste 24 Sudeste 0 -- -- 68
2019-04-12 21:00:00 12.1 18 Sudeste 36 Sudeste 0 -- -- 63
2019-04-12 20:00:00 15 25 Sudeste 48 Sudeste 0 -- -- 53
2019-04-12 19:00:00 19.2 22 Oeste 39 Oeste 0 -- -- 30
2019-04-12 18:00:00 20.2 17 Noroeste 34 Noroeste 0 -- -- 28
2019-04-12 17:00:00 20.4 15 Oeste 33 Oeste 0 -- -- 29
2019-04-12 16:00:00 20.1 18 Oeste 31 Oeste 0 -- -- 30
2019-04-12 15:00:00 19.2 14 Oeste 26 Oeste 0 -- -- 31
2019-04-12 14:00:00 18.3 10 Noroeste 25 Noroeste 0 -- -- 32
2019-04-12 13:00:00 16.6 10 Noroeste 24 Noroeste 0 -- -- 36
2019-04-12 12:00:00 14.7 13 Norte 26 Noroeste 0 -- -- 39
2019-04-12 11:00:00 12.7 15 Noroeste 30 Oeste 0 -- -- 49
2019-04-12 10:00:00 10.9 18 Oeste 27 Oeste 0 -- -- 55
2019-04-12 09:00:00 9.2 13 Noroeste 20 Noroeste 0 -- -- 60
2019-04-12 08:00:00 6.3 6 Noroeste 22 Oeste 0 -- -- 69
2019-04-12 07:00:00 3.5 3 Nordeste 10 Noroeste 0 -- -- 76
2019-04-12 06:00:00 5.8 6 Noroeste 18 Noroeste 0 -- -- 71
2019-04-12 05:00:00 5.8 12 Noroeste 17 Oeste 0 -- -- 76
2019-04-12 04:00:00 3.3 4 Noroeste 7 Oeste 0 -- -- 82
2019-04-12 03:00:00 4.2 3 Sudoeste 5 Norte 0 -- -- 77
2019-04-12 02:00:00 5.9 4 Norte 8 Noroeste 0 -- -- 71
2019-04-12 01:00:00 6.8 2 Norte 8 Oeste 0 -- -- 67
2019-04-12 00:00:00 9 4 Sudoeste 8 Oeste 0 -- -- 57
2019-04-11 23:00:00 11 3 Este 18 Noroeste 0 -- -- 50
2019-04-11 22:00:00 13.3 17 Noroeste 34 Noroeste 0 -- -- 42
2019-04-11 21:00:00 14.6 4 Nordeste 17 Este 0 -- -- 51
2019-04-11 20:00:00 17.4 15 Norte 40 Oeste 0 -- -- 35
2019-04-11 19:00:00 19.7 13 Oeste 31 Oeste 0 -- -- 30
2019-04-11 18:00:00 18.2 16 Oeste 28 Oeste 0 -- -- 31
2019-04-11 17:00:00 18.7 14 Noroeste 32 Oeste 0 -- -- 33
2019-04-11 16:00:00 18.4 15 Oeste 33 Oeste 0 -- -- 34
2019-04-11 15:00:00 18.7 10 Oeste 26 Oeste 0 -- -- 32
2019-04-11 14:00:00 18.3 13 Noroeste 23 Noroeste 0 -- -- 36
2019-04-11 13:00:00 16.7 12 Oeste 25 Oeste 0 -- -- 42
2019-04-11 12:00:00 14.7 12 Noroeste 23 Oeste 0 -- -- 47
2019-04-11 11:00:00 12.4 9 Noroeste 26 Oeste 0 -- -- 54
2019-04-11 10:00:00 9.7 18 Oeste 25 Oeste 0 -- -- 66
2019-04-11 09:00:00 7.3 15 Oeste 25 Oeste 0 -- -- 77
2019-04-11 08:00:00 5.4 14 Oeste 19 Oeste 0 -- -- 83
2019-04-11 07:00:00 4.8 7 Oeste 15 Oeste 0 -- -- 84
2019-04-11 06:00:00 4.8 5 Noroeste 11 Noroeste 0 -- -- 85
2019-04-11 05:00:00 4.9 4 Nordeste 17 Noroeste 0 -- -- 84
2019-04-11 04:00:00 6.6 10 Noroeste 24 Oeste 0 -- -- 80
2019-04-11 03:00:00 6.7 14 Oeste 22 Oeste 0 -- -- 80
2019-04-11 02:00:00 6.7 10 Noroeste 15 Noroeste 0 -- -- 79
2019-04-11 01:00:00 7.5 7 Sudoeste 22 Oeste 0 -- -- 75
2019-04-11 00:00:00 8.1 9 Noroeste 21 Oeste 0 -- -- 72
2019-04-10 23:00:00 8.9 11 Noroeste 23 Noroeste 0 -- -- 70
2019-04-10 22:00:00 9.8 17 Oeste 30 Oeste 0 -- -- 70
2019-04-10 21:00:00 10.2 21 Oeste 31 Oeste 0 -- -- 69
2019-04-10 20:00:00 11.7 18 Oeste 33 Sudoeste 0 -- -- 59
2019-04-10 19:00:00 13.8 19 Oeste 40 Oeste 0 -- -- 51
2019-04-10 18:00:00 13 32 Oeste 49 Oeste 0 -- -- 47
2019-04-10 17:00:00 14.2 32 Oeste 51 Oeste 0 -- -- 49
2019-04-10 16:00:00 16.8 30 Oeste 49 Oeste 0 -- -- 39
2019-04-10 15:00:00 16.8 29 Oeste 54 Oeste 0 -- -- 38
2019-04-10 14:00:00 15.6 32 Noroeste 49 Oeste 0 -- -- 43
2019-04-10 13:00:00 15.2 29 Noroeste 46 Oeste 0 -- -- 47
2019-04-10 12:00:00 13.5 26 Noroeste 40 Oeste 0 -- -- 56
2019-04-10 11:00:00 12.1 18 Noroeste 35 Noroeste 0 -- -- 58
2019-04-10 10:00:00 10.2 19 Noroeste 38 Oeste 0 -- -- 67
2019-04-10 09:00:00 8.9 24 Noroeste 37 Noroeste 0 -- -- 72
2019-04-10 08:00:00 8.2 21 Noroeste 35 Noroeste 0 -- -- 76
2019-04-10 07:00:00 8.3 19 Noroeste 33 Noroeste 0 -- -- 77
2019-04-10 06:00:00 8.7 21 Noroeste 40 Noroeste 0 -- -- 74
2019-04-10 05:00:00 9.4 21 Noroeste 32 Noroeste 0 -- -- 68
2019-04-10 04:00:00 9 17 Noroeste 34 Noroeste 0 -- -- 72
2019-04-10 03:00:00 5.8 8 Oeste 23 Oeste 0 -- -- 86
2019-04-10 02:00:00 6 4 Noroeste 9 Norte 0 -- -- 81
2019-04-10 01:00:00 7 7 Norte 12 Noroeste 0 -- -- 75
2019-04-10 00:00:00 8.1 8 Noroeste 22 Oeste 0 -- -- 73
2019-04-09 23:00:00 8.9 13 Noroeste 32 Noroeste 0 -- -- 71
2019-04-09 22:00:00 10.1 20 Oeste 28 Oeste 0 -- -- 70
2019-04-09 21:00:00 10.4 13 Noroeste 36 Oeste 0 -- -- 67
2019-04-09 20:00:00 12.4 24 Oeste 39 Oeste 0 -- -- 58
2019-04-09 19:00:00 13.3 25 Oeste 37 Sudoeste 0 -- -- 62
2019-04-09 18:00:00 10.5 20 Oeste 68 Oeste 0.4 -- -- 76
2019-04-09 17:00:00 17.7 23 Oeste 45 Oeste 0 -- -- 40
2019-04-09 16:00:00 15.4 24 Oeste 43 Oeste 0 -- -- 42
2019-04-09 15:00:00 14.9 23 Oeste 39 Noroeste 0 -- -- 44
2019-04-09 14:00:00 15.6 25 Oeste 41 Noroeste 0 -- -- 47
2019-04-09 13:00:00 14.6 28 Noroeste 47 Oeste 0 -- -- 51
2019-04-09 12:00:00 12.5 23 Noroeste 42 Noroeste 0 -- -- 58
2019-04-09 11:00:00 12.3 27 Noroeste 42 Noroeste 0 -- -- 62
2019-04-09 10:00:00 10.5 21 Noroeste 45 Noroeste 0 -- -- 69
2019-04-09 09:00:00 9.3 18 Noroeste 31 Noroeste 0 -- -- 73
2019-04-09 08:00:00 8 15 Noroeste 24 Noroeste 0 -- -- 78
2019-04-09 07:00:00 6.8 9 Noroeste 18 Noroeste 0 -- -- 85
2019-04-09 06:00:00 7.8 6 Noroeste 23 Noroeste 0 -- -- 80
2019-04-09 05:00:00 9.1 14 Noroeste 24 Noroeste 0 -- -- 76
2019-04-09 04:00:00 9.3 9 Noroeste 18 Oeste 0 -- -- 79
2019-04-09 03:00:00 9.9 12 Oeste 41 Oeste 0.2 -- -- 82
2019-04-09 02:00:00 11.3 21 Oeste 43 Oeste 0 -- -- 74
2019-04-09 01:00:00 11.9 9 Noroeste 24 Oeste 0 -- -- 71
2019-04-09 00:00:00 13.2 12 Oeste 24 Sudoeste 0 -- -- 68
2019-04-08 23:00:00 9.8 3 Sudoeste 7 Sudoeste 0 -- -- 91
2019-04-08 22:00:00 10.8 0 Calma 4 Este 0 -- -- 89
2019-04-08 21:00:00 12.2 4 Nordeste 11 Noroeste 0 -- -- 86
2019-04-08 20:00:00 13.7 6 Noroeste 13 Norte 0 -- -- 84
2019-04-08 19:00:00 13.9 8 Noroeste 19 Oeste 0.2 -- -- 82
2019-04-08 18:00:00 13.2 12 Oeste 57 Oeste 1.2 -- -- 84
2019-04-08 17:00:00 18.3 14 Oeste 32 Oeste 0 -- -- 50
2019-04-08 16:00:00 18.2 18 Oeste 35 Oeste 0 -- -- 53
2019-04-08 15:00:00 17.9 21 Oeste 33 Oeste 0 -- -- 54
2019-04-08 14:00:00 15.3 15 Oeste 31 Oeste 0 -- -- 59
2019-04-08 13:00:00 16.3 15 Oeste 27 Oeste 0 -- -- 59
2019-04-08 12:00:00 14.9 14 Oeste 26 Oeste 0 -- -- 66
2019-04-08 11:00:00 12.1 8 Oeste 15 Sudoeste 0 -- -- 79
2019-04-08 10:00:00 9.5 6 Noroeste 12 Norte 0 -- -- 89
2019-04-08 09:00:00 6.9 0 Calma 5 Sudoeste 0 -- -- 94
2019-04-08 08:00:00 5.7 0 Calma 6 Oeste 0 -- -- 92
2019-04-08 07:00:00 6.2 4 Sudoeste 8 Norte 0 -- -- 91
2019-04-08 06:00:00 6.9 3 Norte 5 Nordeste 0 -- -- 89
2019-04-08 05:00:00 7.4 0 Calma 5 Oeste 0 -- -- 90
2019-04-08 04:00:00 7 4 Sudeste 6 Sudeste 0 -- -- 87
2019-04-08 03:00:00 7.2 4 Sudeste 6 Este 0 -- -- 83
2019-04-08 02:00:00 7.7 0 Calma 8 Oeste 0 -- -- 80
2019-04-08 01:00:00 8.1 5 Oeste 10 Oeste 0 -- -- 79
2019-04-08 00:00:00 9.3 3 Oeste 5 Oeste 0 -- -- 67
2019-04-07 23:00:00 11.5 0 Calma 18 Noroeste 0 -- -- 58
2019-04-07 22:00:00 12.3 10 Noroeste 29 Oeste 0 -- -- 54
2019-04-07 21:00:00 12.8 13 Noroeste 36 Oeste 0 -- -- 51
2019-04-07 20:00:00 13.4 19 Noroeste 41 Noroeste 0 -- -- 49
2019-04-07 19:00:00 14.1 27 Noroeste 42 Oeste 0 -- -- 42
2019-04-07 18:00:00 14.1 28 Oeste 46 Oeste 0 -- -- 43
2019-04-07 17:00:00 14.3 22 Noroeste 41 Noroeste 0 -- -- 43
2019-04-07 16:00:00 13.9 24 Noroeste 43 Noroeste 0 -- -- 41
2019-04-07 15:00:00 14.3 27 Noroeste 44 Noroeste 0 -- -- 41
2019-04-07 14:00:00 13.4 19 Noroeste 45 Noroeste 0 -- -- 47
2019-04-07 13:00:00 12 26 Noroeste 48 Noroeste 0 -- -- 51
2019-04-07 12:00:00 11.5 27 Noroeste 41 Noroeste 0 -- -- 53
2019-04-07 11:00:00 9.3 23 Noroeste 40 Noroeste 0 -- -- 65
2019-04-07 10:00:00 8.1 22 Noroeste 33 Noroeste 0 -- -- 73
2019-04-07 09:00:00 6.7 16 Oeste 30 Oeste 0 -- -- 80
2019-04-07 08:00:00 5.4 19 Oeste 43 Oeste 0 -- -- 80
2019-04-07 07:00:00 6.5 13 Oeste 39 Oeste 0 -- -- 75
2019-04-07 06:00:00 6.4 8 Noroeste 20 Noroeste 0 -- -- 72
2019-04-07 05:00:00 5.3 9 Noroeste 22 Noroeste 0 -- -- 77
2019-04-07 04:00:00 6.5 11 Noroeste 31 Oeste 0 -- -- 70
2019-04-07 03:00:00 6.4 16 Noroeste 26 Oeste 0 -- -- 71
2019-04-07 02:00:00 3.7 4 Sudoeste 11 Noroeste 0 -- -- 82
2019-04-07 01:00:00 5.6 7 Noroeste 17 Noroeste 0 -- -- 76
2019-04-07 00:00:00 6.4 11 Noroeste 20 Noroeste 0 -- -- 73
2019-04-06 23:00:00 7.3 10 Oeste 20 Oeste 0 -- -- 71
2019-04-06 22:00:00 8.5 9 Sudoeste 22 Oeste 0 -- -- 66
2019-04-06 21:00:00 9.7 8 Oeste 18 Sudoeste 0 -- -- 65
2019-04-06 20:00:00 10.4 8 Oeste 35 Oeste 0.2 -- -- 62
2019-04-06 19:00:00 11.6 17 Oeste 31 Oeste 0 -- -- 58
2019-04-06 18:00:00 9.2 9 Oeste 60 Oeste 0.2 -- -- 72
2019-04-06 17:00:00 8.7 47 Oeste 76 Oeste 0.2 -- -- 69
2019-04-06 16:00:00 15.8 28 Oeste 45 Oeste 0 -- -- 43
2019-04-06 15:00:00 14.1 22 Oeste 42 Oeste 0 -- -- 49
2019-04-06 14:00:00 12.5 22 Sudoeste 30 Sudoeste 0.2 -- -- 55
2019-04-06 13:00:00 11.8 6 Sudoeste 20 Sudoeste 0 -- -- 58
2019-04-06 12:00:00 10.6 9 Oeste 28 Noroeste 0 -- -- 60
2019-04-06 11:00:00 9.3 13 Noroeste 33 Oeste 0 -- -- 66
2019-04-06 10:00:00 8.4 22 Noroeste 36 Oeste 0 -- -- 65
2019-04-06 09:00:00 7.3 6 Norte 15 Oeste 0 -- -- 70
2019-04-06 08:00:00 6.3 10 Noroeste 30 Noroeste 0 -- -- 72
2019-04-06 07:00:00 6 14 Noroeste 25 Noroeste 0 -- -- 70
2019-04-06 06:00:00 6.2 12 Noroeste 24 Oeste 0 -- -- 71
2019-04-06 05:00:00 6.2 13 Noroeste 24 Oeste 0 -- -- 73
2019-04-06 04:00:00 6 4 Noroeste 10 Norte 0 -- -- 77
2019-04-06 03:00:00 5 5 Nordeste 12 Noroeste 0 -- -- 77
2019-04-06 02:00:00 5.9 8 Norte 25 Noroeste 0 -- -- 71
2019-04-06 01:00:00 6.6 13 Noroeste 27 Noroeste 0 -- -- 67
2019-04-06 00:00:00 6.9 18 Noroeste 29 Oeste 0 -- -- 69
2019-04-05 23:00:00 7.3 19 Oeste 30 Oeste 0 -- -- 70
2019-04-05 22:00:00 8 11 Oeste 36 Oeste 0 -- -- 73
2019-04-05 21:00:00 8.3 2 Noroeste 6 Oeste 0 -- -- 89
2019-04-05 20:00:00 8.9 2 Este 6 Sudoeste 0 -- -- 86
2019-04-05 19:00:00 8.7 7 Noroeste 20 Noroeste 0 -- -- 89
2019-04-05 18:00:00 8.6 12 Sudeste 21 Sudeste 0.2 -- -- 87
2019-04-05 17:00:00 8.2 9 Norte 44 Noroeste 7 -- -- 89
2019-04-05 16:00:00 12.2 17 Oeste 38 Noroeste 0 -- -- 67
2019-04-05 15:00:00 16 19 Sudoeste 34 Sur 0 -- -- 41
2019-04-05 14:00:00 17.7 13 Sudoeste 31 Sudoeste 0 -- -- 39
2019-04-05 13:00:00 16.7 17 Sudoeste 37 Sudoeste 0 -- -- 42
2019-04-05 12:00:00 15 5 Oeste 13 Oeste 0 -- -- 46
2019-04-05 11:00:00 12.9 4 Sudoeste 12 Oeste 0 -- -- 52
2019-04-05 10:00:00 9.3 0 Calma 6 Norte 0 -- -- 84
2019-04-05 09:00:00 7.1 0 Calma 5 Oeste 0 -- -- 93
2019-04-05 08:00:00 5.5 6 Oeste 8 Noroeste 0 -- -- 91
2019-04-05 07:00:00 6.6 0 Calma 14 Sur 0 -- -- 91
2019-04-05 06:00:00 6.3 10 Sur 14 Sur 0 -- -- 92
2019-04-05 05:00:00 6.5 6 Sur 11 Sudoeste 0 -- -- 90
2019-04-05 04:00:00 7.2 9 Sudeste 15 Sudeste 0 -- -- 88
2019-04-05 03:00:00 8.1 13 Sudeste 23 Sudeste 0 -- -- 84
2019-04-05 02:00:00 8.9 18 Sudeste 30 Sudeste 0 -- -- 83
2019-04-05 01:00:00 9.2 21 Sudeste 30 Sudeste 0 -- -- 81
2019-04-05 00:00:00 9.2 20 Sudeste 27 Sudeste 0 -- -- 81
2019-04-04 23:00:00 8.9 17 Sudeste 32 Sudeste 0 -- -- 81
2019-04-04 22:00:00 9 20 Sudeste 32 Sudeste 0 -- -- 79
2019-04-04 21:00:00 9.6 23 Sudeste 39 Sudeste 0 -- -- 73
2019-04-04 20:00:00 10.9 24 Sudeste 42 Sudeste 0 -- -- 68
2019-04-04 19:00:00 12.6 32 Sudeste 42 Sudeste 0 -- -- 62
2019-04-04 18:00:00 14.2 28 Sudeste 39 Sudeste 0 -- -- 56
2019-04-04 17:00:00 15.2 26 Sur 35 Sudeste 0 -- -- 52
2019-04-04 16:00:00 16.8 13 Sudeste 31 Sudeste 0 -- -- 46
2019-04-04 15:00:00 17.1 8 Oeste 27 Oeste 0 -- -- 26
2019-04-04 14:00:00 15.8 6 Sudoeste 22 Nordeste 0 -- -- 29
2019-04-04 13:00:00 14.4 6 Nordeste 20 Noroeste 0 -- -- 31
2019-04-04 12:00:00 12.9 12 Noroeste 23 Norte 0 -- -- 35
2019-04-04 11:00:00 11.6 11 Norte 22 Norte 0 -- -- 49
2019-04-04 10:00:00 9.6 9 Noroeste 13 Noroeste 0 -- -- 75
2019-04-04 09:00:00 7.6 5 Norte 9 Noroeste 0 -- -- 90
2019-04-04 08:00:00 5.8 6 Norte 8 Noroeste 0 -- -- 90
2019-04-04 07:00:00 7.5 6 Norte 14 Norte 0 -- -- 89
2019-04-04 06:00:00 7.9 8 Norte 12 Norte 0 -- -- 90
2019-04-04 05:00:00 8.4 9 Norte 15 Nordeste 0 -- -- 89
2019-04-04 04:00:00 8.6 5 Norte 12 Norte 0 -- -- 90
2019-04-04 03:00:00 8.6 4 Noroeste 15 Noroeste 0 -- -- 90
2019-04-04 02:00:00 9.3 10 Norte 18 Norte 0 -- -- 88
2019-04-04 01:00:00 10.1 11 Norte 28 Norte 0 -- -- 84
2019-04-04 00:00:00 13 13 Noroeste 33 Noroeste 0 -- -- 52
2019-04-03 23:00:00 15.4 16 Noroeste 27 Noroeste 0 -- -- 41
2019-04-03 22:00:00 14.7 9 Noroeste 20 Oeste 0 -- -- 54
2019-04-03 21:00:00 17.2 10 Oeste 24 Oeste 0 -- -- 44
2019-04-03 20:00:00 19.3 16 Oeste 28 Oeste 0 -- -- 37
2019-04-03 19:00:00 18.1 21 Sudeste 31 Sudeste 0 -- -- 53
2019-04-03 18:00:00 20.4 12 Sur 26 Oeste 0 -- -- 48
2019-04-03 17:00:00 21.9 19 Oeste 32 Oeste 0 -- -- 38
2019-04-03 16:00:00 20.5 12 Oeste 31 Oeste 0 -- -- 39
2019-04-03 15:00:00 20.4 17 Oeste 36 Oeste 0 -- -- 38
2019-04-03 14:00:00 20.3 20 Oeste 32 Oeste 0 -- -- 42
2019-04-03 13:00:00 19.5 18 Oeste 33 Oeste 0 -- -- 49
2019-04-03 12:00:00 18.3 19 Oeste 31 Noroeste 0 -- -- 53
2019-04-03 11:00:00 16.2 15 Oeste 23 Oeste 0 -- -- 62
2019-04-03 10:00:00 10.6 3 Noroeste 6 Norte 0 -- -- 95
2019-04-03 09:00:00 6.4 2 Norte 3 Norte 0 -- -- 98
2019-04-03 08:00:00 3.7 0 Calma 3 Oeste 0 -- -- 96
2019-04-03 07:00:00 4.5 3 Noroeste 6 Noroeste 0 -- -- 96
2019-04-03 06:00:00 5 3 Norte 6 Oeste 0 -- -- 95
2019-04-03 05:00:00 5.3 3 Norte 5 Nordeste 0 -- -- 95
2019-04-03 04:00:00 6.2 2 Oeste 8 Oeste 0 -- -- 94
2019-04-03 03:00:00 7.2 3 Oeste 5 Noroeste 0 -- -- 94
2019-04-03 02:00:00 8.4 4 Nordeste 9 Norte 0 -- -- 93
2019-04-03 01:00:00 8.7 6 Sudeste 9 Sudeste 0 -- -- 93
2019-04-03 00:00:00 9.2 4 Oeste 6 Oeste 0 -- -- 91
2019-04-02 23:00:00 10.8 2 Oeste 5 Oeste 0 -- -- 87
2019-04-02 22:00:00 12.3 5 Nordeste 13 Oeste 0 -- -- 84
2019-04-02 21:00:00 12.5 8 Nordeste 26 Nordeste 0 -- -- 81
2019-04-02 20:00:00 14.1 17 Nordeste 44 Nordeste 0 -- -- 70
2019-04-02 19:00:00 19.5 8 Sudoeste 19 Oeste 0 -- -- 49
2019-04-02 18:00:00 19.1 9 Noroeste 20 Sudoeste 0 -- -- 54
2019-04-02 17:00:00 19.2 10 Oeste 23 Oeste 0 -- -- 50
2019-04-02 16:00:00 19.2 11 Oeste 42 Oeste 0 -- -- 49
2019-04-02 15:00:00 18.9 11 Oeste 24 Oeste 0 -- -- 53
2019-04-02 14:00:00 17.1 8 Noroeste 19 Norte 0 -- -- 58
2019-04-02 13:00:00 16.5 12 Norte 26 Oeste 0 -- -- 63
2019-04-02 12:00:00 16.1 16 Noroeste 26 Noroeste 0 -- -- 67
2019-04-02 11:00:00 14.7 12 Noroeste 19 Oeste 0 -- -- 77
2019-04-02 10:00:00 12.3 11 Oeste 19 Oeste 0 -- -- 90
2019-04-02 09:00:00 9.5 7 Noroeste 13 Oeste 0 -- -- 97
2019-04-02 08:00:00 8.1 3 Oeste 5 Oeste 0 -- -- 96
2019-04-02 07:00:00 9.8 2 Nordeste 7 Este 0 -- -- 96
2019-04-02 06:00:00 10.5 3 Sudeste 9 Este 0 -- -- 96
2019-04-02 05:00:00 10.4 6 Sudeste 9 Sudeste 0 -- -- 96
2019-04-02 04:00:00 10.4 8 Sudeste 12 Sudeste 0 -- -- 96
2019-04-02 03:00:00 10.6 6 Sudeste 8 Este 0 -- -- 95
2019-04-02 02:00:00 10.7 5 Sudeste 12 Este 0 -- -- 95
2019-04-02 01:00:00 10.9 4 Sur 12 Sudeste 0 -- -- 94
2019-04-02 00:00:00 11.1 9 Sur 21 Sudeste 0 -- -- 94
2019-04-01 23:00:00 11.3 10 Sudeste 16 Sur 0 -- -- 93
2019-04-01 22:00:00 11.3 8 Sur 17 Sur 0 -- -- 92
2019-04-01 21:00:00 11.3 12 Sur 25 Sur 0.6 -- -- 92
2019-04-01 20:00:00 11.8 10 Sudoeste 17 Sur 0 -- -- 92
2019-04-01 19:00:00 12.1 5 Sudeste 26 Sur 4 -- -- 90
2019-04-01 18:00:00 13.7 16 Nordeste 26 Nordeste 0 -- -- 81
2019-04-01 17:00:00 15.2 17 Nordeste 24 Norte 0 -- -- 77
2019-04-01 16:00:00 15.6 13 Nordeste 21 Nordeste 0 -- -- 78
2019-04-01 15:00:00 14.9 9 Norte 15 Norte 0 -- -- 73
2019-04-01 14:00:00 13 6 Nordeste 13 Norte 0 -- -- 87
2019-04-01 13:00:00 11.4 6 Norte 9 Nordeste 0.2 -- -- 95
2019-04-01 12:00:00 10.6 6 Norte 13 Norte 0.2 -- -- 94
2019-04-01 11:00:00 10.5 10 Norte 15 Norte 0 -- -- 94
2019-04-01 10:00:00 10.1 8 Norte 14 Norte 0 -- -- 95
2019-04-01 09:00:00 9.8 10 Norte 15 Nordeste 0 -- -- 95
2019-04-01 08:00:00 9.5 8 Noroeste 12 Norte 0 -- -- 95
2019-04-01 07:00:00 9.6 7 Noroeste 10 Noroeste 0 -- -- 94
2019-04-01 06:00:00 9.6 9 Norte 15 Norte 0 -- -- 94
2019-04-01 05:00:00 9.7 9 Norte 17 Norte 0 -- -- 94
2019-04-01 04:00:00 9.7 10 Norte 19 Nordeste 0 -- -- 94
2019-04-01 03:00:00 9.8 9 Norte 14 Norte 0 -- -- 94
2019-04-01 02:00:00 9.9 9 Norte 14 Noroeste 0.2 -- -- 94
2019-04-01 01:00:00 10 7 Noroeste 12 Noroeste 0.2 -- -- 95
2019-04-01 00:00:00 10.3 8 Norte 12 Norte 0 -- -- 94
2019-03-31 23:00:00 10.4 2 Noroeste 15 Norte 0.4 -- -- 93
2019-03-31 22:00:00 10.6 9 Norte 23 Norte 0 -- -- 92
2019-03-31 21:00:00 10.5 14 Norte 23 Norte 0 -- -- 91
2019-03-31 20:00:00 10.6 12 Norte 32 Norte 0 -- -- 91
2019-03-31 19:00:00 10.9 22 Nordeste 37 Norte 0 -- -- 90
2019-03-31 18:00:00 11 20 Nordeste 39 Nordeste 0 -- -- 90
2019-03-31 17:00:00 11.7 20 Nordeste 32 Nordeste 0.2 -- -- 91
2019-03-31 16:00:00 11 15 Nordeste 26 Nordeste 0.6 -- -- 92
2019-03-31 15:00:00 11.2 18 Nordeste 30 Nordeste 1 -- -- 93
2019-03-31 14:00:00 9.9 18 Norte 30 Nordeste 1 -- -- 93
2019-03-31 13:00:00 9.9 15 Norte 32 Nordeste 1.4 -- -- 94
2019-03-31 12:00:00 9.3 12 Norte 25 Nordeste 3 -- -- 94
2019-03-31 11:00:00 8.9 8 Norte 20 Norte 2.6 -- -- 94
2019-03-31 10:00:00 8.4 11 Norte 22 Norte 1 -- -- 94
2019-03-31 09:00:00 8.1 9 Norte 18 Norte 0.8 -- -- 93
2019-03-31 08:00:00 7.5 11 Norte 32 Nordeste 3.4 -- -- 94
2019-03-31 07:00:00 7.7 19 Norte 31 Nordeste 1.8 -- -- 93
2019-03-31 06:00:00 7.8 21 Norte 33 Nordeste 0.6 -- -- 90
2019-03-31 05:00:00 8.1 18 Norte 26 Norte 0 -- -- 82
2019-03-31 03:00:00 8.6 11 Norte 17 Nordeste 0 -- -- 73
2019-03-31 01:00:00 8.7 9 Nordeste 22 Nordeste 0 -- -- 73
2019-03-31 00:00:00 8.7 15 Nordeste 28 Norte 0 -- -- 71
2019-03-30 23:00:00 9.2 12 Norte 37 Nordeste 0 -- -- 68
2019-03-30 22:00:00 9.9 32 Nordeste 46 Nordeste 0 -- -- 69
2019-03-30 21:00:00 10.8 16 Nordeste 29 Norte 0 -- -- 72
2019-03-30 20:00:00 11.7 14 Nordeste 21 Nordeste 0 -- -- 70
2019-03-30 19:00:00 12.7 12 Sudeste 28 Sur 0 -- -- 70
2019-03-30 18:00:00 14.3 18 Sur 38 Nordeste 0 -- -- 62
2019-03-30 17:00:00 17 15 Nordeste 39 Este 0 -- -- 52
2019-03-30 16:00:00 17.5 18 Nordeste 29 Nordeste 0 -- -- 48
2019-03-30 15:00:00 18.8 10 Sur 24 Sur 0 -- -- 40
2019-03-30 14:00:00 18.1 9 Sudeste 23 Sudeste 0 -- -- 39
2019-03-30 13:00:00 16.5 5 Nordeste 17 Nordeste 0 -- -- 47
2019-03-30 12:00:00 15.6 7 Norte 18 Norte 0 -- -- 50
2019-03-30 11:00:00 14 10 Noroeste 16 Norte 0 -- -- 55
2019-03-30 10:00:00 11.4 4 Norte 10 Norte 0 -- -- 64
2019-03-30 09:00:00 7.1 2 Norte 4 Norte 0 -- -- 85
2019-03-30 08:00:00 1.1 2 Norte 5 Norte 0 -- -- 94
2019-03-30 07:00:00 -1.7 2 Sudoeste 4 Sudoeste 0 -- -- 91
2019-03-30 06:00:00 -1.5 2 Nordeste 8 Oeste 0 -- -- 91
2019-03-30 05:00:00 -1.2 0 Calma 5 Norte 0 -- -- 90
2019-03-30 04:00:00 0 2 Norte 8 Noroeste 0 -- -- 89
2019-03-30 03:00:00 0.5 5 Noroeste 9 Oeste 0 -- -- 88
2019-03-30 02:00:00 0.3 3 Noroeste 6 Oeste 0 -- -- 85
2019-03-30 01:00:00 0.7 0 Calma 5 Oeste 0 -- -- 79
2019-03-30 00:00:00 1.5 2 Oeste 5 Norte 0 -- -- 76
2019-03-29 23:00:00 3.1 0 Calma 5 Nordeste 0 -- -- 79
2019-03-29 22:00:00 5.8 0 Calma 9 Nordeste 0 -- -- 69
2019-03-29 21:00:00 8.9 6 Sudeste 15 Sur 0 -- -- 67
2019-03-29 20:00:00 10.1 10 Sudoeste 18 Sudeste 0 -- -- 60
2019-03-29 19:00:00 12.4 13 Sur 28 Sudeste 0 -- -- 48
2019-03-29 18:00:00 13.4 20 Sur 36 Sur 0 -- -- 41
2019-03-29 17:00:00 15 26 Sur 40 Sur 0 -- -- 36
2019-03-29 16:00:00 15.2 24 Sudeste 36 Sur 0 -- -- 37
2019-03-29 15:00:00 16 22 Sur 33 Sur 0 -- -- 37
2019-03-29 14:00:00 16.4 20 Sur 40 Sudeste 0 -- -- 36
2019-03-29 13:00:00 16 21 Sudeste 47 Sudeste 0 -- -- 39
2019-03-29 12:00:00 15.3 26 Sur 37 Sur 0 -- -- 41
2019-03-29 11:00:00 14.3 20 Sur 31 Sur 0 -- -- 45
2019-03-29 10:00:00 11.7 4 Nordeste 8 Este 0 -- -- 52
2019-03-29 09:00:00 6.8 2 Oeste 5 Oeste 0 -- -- 75
2019-03-29 08:00:00 0.1 0 Calma 6 Sudoeste 0 -- -- 80
2019-03-29 07:00:00 -3.6 0 Calma 5 Sudoeste 0 -- -- 86
2019-03-29 06:00:00 -2.8 3 Oeste 5 Sudoeste 0 -- -- 85
2019-03-29 05:00:00 -2.6 0 Calma 8 Noroeste 0 -- -- 83
2019-03-29 04:00:00 -2 0 Calma 4 Oeste 0 -- -- 85
2019-03-29 03:00:00 -1.4 2 Noroeste 5 Norte 0 -- -- 85
2019-03-29 02:00:00 -1.3 0 Calma 3 Noroeste 0 -- -- 82
2019-03-29 01:00:00 0.2 0 Calma 4 Noroeste 0 -- -- 79
2019-03-29 00:00:00 2.1 0 Calma 6 Sur 0 -- -- 80
2019-03-28 23:00:00 4.7 4 Sudeste 10 Este 0 -- -- 74
2019-03-28 22:00:00 7 7 Sudeste 15 Sudeste 0 -- -- 72
2019-03-28 21:00:00 7.7 7 Sudeste 14 Sur 0 -- -- 68
2019-03-28 20:00:00 10.4 10 Sur 21 Sur 0 -- -- 53
2019-03-28 19:00:00 12.4 17 Sur 28 Sur 0 -- -- 42
2019-03-28 18:00:00 14.2 19 Sudeste 33 Sur 0 -- -- 41
2019-03-28 17:00:00 15.5 23 Sudeste 36 Sur 0 -- -- 41
2019-03-28 16:00:00 16.6 23 Sur 33 Sur 0 -- -- 32
2019-03-28 15:00:00 16.7 23 Sur 35 Sur 0 -- -- 33
2019-03-28 14:00:00 17.6 20 Sur 34 Sur 0 -- -- 23
2019-03-28 13:00:00 17.4 13 Sur 33 Sudeste 0 -- -- 23
2019-03-28 12:00:00 17.5 11 Sudoeste 23 Sudeste 0 -- -- 24
2019-03-28 11:00:00 14.8 7 Norte 14 Noroeste 0 -- -- 30
2019-03-28 10:00:00 10.6 7 Noroeste 13 Noroeste 0 -- -- 42
2019-03-28 09:00:00 6.1 9 Norte 14 Norte 0 -- -- 52
2019-03-28 08:00:00 0.3 5 Noroeste 10 Norte 0 -- -- 69
2019-03-28 07:00:00 -2.1 4 Noroeste 12 Noroeste 0 -- -- 76
2019-03-28 06:00:00 -3 6 Noroeste 8 Noroeste 0 -- -- 77
2019-03-28 05:00:00 -2.8 2 Noroeste 5 Norte 0 -- -- 72
2019-03-28 04:00:00 -2 2 Oeste 6 Sudoeste 0 -- -- 76
2019-03-28 03:00:00 -2.4 2 Norte 5 Norte 0 -- -- 73
2019-03-28 02:00:00 -1.9 0 Calma 4 Sudoeste 0 -- -- 71
2019-03-28 01:00:00 -0.5 2 Oeste 4 Noroeste 0 -- -- 70
2019-03-28 00:00:00 1.2 0 Calma 7 Norte 0 -- -- 60
2019-03-27 23:00:00 3.9 8 Sudeste 12 Sur 0 -- -- 57
2019-03-27 22:00:00 5.5 6 Sudeste 11 Sur 0 -- -- 58
2019-03-27 21:00:00 7.9 9 Este 14 Sur 0 -- -- 58
2019-03-27 20:00:00 10.4 10 Sur 18 Sur 0 -- -- 50
2019-03-27 19:00:00 13.2 13 Sur 19 Sur 0 -- -- 41
2019-03-27 18:00:00 15.2 14 Sur 44 Nordeste 0 -- -- 38
2019-03-27 17:00:00 16.9 15 Nordeste 36 Norte 0 -- -- 24
2019-03-27 16:00:00 18 21 Nordeste 40 Nordeste 0 -- -- 25
2019-03-27 15:00:00 18 21 Nordeste 44 Nordeste 0 -- -- 27
2019-03-27 14:00:00 17.6 23 Nordeste 37 Norte 0 -- -- 32
2019-03-27 13:00:00 16.8 21 Norte 31 Norte 0 -- -- 30
2019-03-27 12:00:00 16.1 6 Este 23 Nordeste 0 -- -- 29
2019-03-27 11:00:00 13.9 6 Noroeste 16 Norte 0 -- -- 41
2019-03-27 10:00:00 10.8 9 Norte 16 Noroeste 0 -- -- 58
2019-03-27 09:00:00 7.5 8 Noroeste 13 Noroeste 0 -- -- 74
2019-03-27 08:00:00 1.2 8 Norte 11 Noroeste 0 -- -- 94
2019-03-27 07:00:00 -1.3 2 Noroeste 10 Noroeste 0 -- -- 93
2019-03-27 06:00:00 -1.4 0 Calma 8 Noroeste 0 -- -- 92
2019-03-27 05:00:00 -0.6 3 Noroeste 8 Noroeste 0 -- -- 91
2019-03-27 04:00:00 0.3 7 Noroeste 9 Noroeste 0 -- -- 91
2019-03-27 03:00:00 1 5 Oeste 8 Oeste 0 -- -- 88
2019-03-27 02:00:00 1.7 5 Oeste 13 Norte 0 -- -- 86
2019-03-27 01:00:00 2.4 7 Sudoeste 9 Sudoeste 0 -- -- 82
2019-03-27 00:00:00 3.6 3 Noroeste 13 Nordeste 0 -- -- 78
2019-03-26 23:00:00 4.3 3 Sur 12 Nordeste 0 -- -- 72
2019-03-26 22:00:00 6.8 11 Norte 18 Norte 0 -- -- 71
2019-03-26 21:00:00 8.4 5 Sur 16 Sudoeste 0 -- -- 62
2019-03-26 20:00:00 9.9 11 Sudoeste 23 Sudoeste 0 -- -- 56
2019-03-26 19:00:00 12.6 16 Sur 25 Sudoeste 0 -- -- 48
2019-03-26 18:00:00 14.8 16 Sur 27 Sur 0 -- -- 59
2019-03-26 17:00:00 16.7 14 Este 32 Nordeste 0 -- -- 45
2019-03-26 16:00:00 17.5 9 Sudoeste 39 Sudeste 0 -- -- 48
2019-03-26 15:00:00 18.7 26 Nordeste 42 Nordeste 0 -- -- 35
2019-03-26 14:00:00 18.3 27 Nordeste 40 Nordeste 0 -- -- 39
2019-03-26 13:00:00 17.4 27 Norte 43 Nordeste 0 -- -- 42
2019-03-26 12:00:00 16.6 28 Nordeste 41 Norte 0 -- -- 44
2019-03-26 11:00:00 15.8 26 Nordeste 41 Nordeste 0 -- -- 47
2019-03-26 10:00:00 13.8 23 Nordeste 39 Norte 0 -- -- 65
2019-03-26 09:00:00 12.1 21 Nordeste 35 Nordeste 0 -- -- 63
2019-03-26 08:00:00 9.3 13 Norte 24 Norte 0 -- -- 74
2019-03-26 07:00:00 5.8 10 Noroeste 15 Noroeste 0 -- -- 70
2019-03-26 06:00:00 4.8 10 Noroeste 14 Noroeste 0 -- -- 69
2019-03-26 05:00:00 3.4 5 Norte 11 Noroeste 0 -- -- 70
2019-03-26 04:00:00 1.2 3 Noroeste 8 Noroeste 0 -- -- 71
2019-03-26 03:00:00 2.2 3 Noroeste 10 Norte 0 -- -- 70
2019-03-26 02:00:00 1.4 4 Norte -- -- 0 -- -- 67
2019-03-26 01:00:00 2.5 0 Calma 7 Noroeste 0 -- -- 64
2019-03-26 00:00:00 3.7 5 Noroeste 6 Noroeste 0 -- -- 64
2019-03-25 23:00:00 5.7 2 Noroeste 10 Sudeste 0 -- -- 58
2019-03-25 22:00:00 8.5 9 Sudeste 17 Sudeste 0 -- -- 51
2019-03-25 21:00:00 10.5 13 Sudeste 17 Sudeste 0 -- -- 49
2019-03-25 20:00:00 13.6 9 Sudeste 20 Sudeste 0 -- -- 38
2019-03-25 19:00:00 16.7 15 Sur 22 Sur 0 -- -- 32
2019-03-25 18:00:00 19.1 15 Sur 26 Sudeste 0 -- -- 28
2019-03-25 17:00:00 20.4 17 Sudeste 27 Sur 0 -- -- 27
2019-03-25 16:00:00 20.9 19 Sudeste 28 Sudeste 0 -- -- 27
2019-03-25 15:00:00 21.4 12 Sudeste 26 Sur 0 -- -- 25
2019-03-25 14:00:00 21.4 14 Sudeste 25 Sudeste 0 -- -- 26
2019-03-25 13:00:00 20.3 13 Sudeste 34 Sudeste 0 -- -- 29
2019-03-25 12:00:00 19.6 14 Sudoeste 24 Sudoeste 0 -- -- 26
2019-03-25 11:00:00 17.5 2 Este 12 Norte 0 -- -- 30
2019-03-25 10:00:00 12.7 9 Norte 15 Norte 0 -- -- 43
2019-03-25 09:00:00 6.9 5 Norte 8 Norte 0 -- -- 55
2019-03-25 08:00:00 1.8 2 Noroeste 8 Norte 0 -- -- 74
2019-03-25 07:00:00 -0.7 3 Norte 9 Norte 0 -- -- 78
2019-03-25 06:00:00 -0.4 6 Norte 9 Norte 0 -- -- 80
2019-03-25 05:00:00 -0.2 5 Noroeste 8 Norte 0 -- -- 79
2019-03-25 04:00:00 0.8 3 Noroeste 8 Noroeste 0 -- -- 74
2019-03-25 03:00:00 1.2 4 Noroeste 7 Noroeste 0 -- -- 75
2019-03-25 02:00:00 1.4 3 Noroeste 7 Oeste 0 -- -- 69
2019-03-25 01:00:00 1.9 0 Calma 4 Oeste 0 -- -- 71
2019-03-25 00:00:00 3.6 3 Noroeste 5 Noroeste 0 -- -- 71